sensor_id;sensor_type;location;lat;lon;timestamp;pressure;altitude;pressure_sealevel;temperature;humidity
47524;BME280;33253;42.144;25.884;2022-11-21T00:01:51;99408.72;;;16.93;100.00
47524;BME280;33253;42.144;25.884;2022-11-21T00:04:17;99404.38;;;16.90;100.00
47524;BME280;33253;42.144;25.884;2022-11-21T00:06:42;99400.97;;;16.77;100.00
47524;BME280;33253;42.144;25.884;2022-11-21T00:09:07;99388.78;;;16.81;100.00
47524;BME280;33253;42.144;25.884;2022-11-21T00:11:33;99391.38;;;16.84;100.00
47524;BME280;33253;42.144;25.884;2022-11-21T00:13:58;99439.03;;;17.12;100.00
47524;BME280;33253;42.144;25.884;2022-11-21T00:16:23;99441.69;;;17.03;100.00
47524;BME280;33253;42.144;25.884;2022-11-21T00:18:49;99454.69;;;17.08;100.00
47524;BME280;33253;42.144;25.884;2022-11-21T00:21:16;99450.38;;;17.05;100.00
47524;BME280;33253;42.144;25.884;2022-11-21T00:23:43;99457.31;;;17.03;100.00
47524;BME280;33253;42.144;25.884;2022-11-21T00:26:10;99439.91;;;17.08;100.00
47524;BME280;33253;42.144;25.884;2022-11-21T00:28:36;99444.28;;;17.06;100.00
47524;BME280;33253;42.144;25.884;2022-11-21T00:31:03;99437.34;;;17.05;99.80
47524;BME280;33253;42.144;25.884;2022-11-21T00:33:28;99453.81;;;17.10;100.00
47524;BME280;33253;42.144;25.884;2022-11-21T00:35:54;99454.66;;;17.14;99.21
47524;BME280;33253;42.144;25.884;2022-11-21T00:38:19;99429.44;;;17.13;99.46
47524;BME280;33253;42.144;25.884;2022-11-21T00:40:46;99426.88;;;17.07;100.00
47524;BME280;33253;42.144;25.884;2022-11-21T00:43:11;99432.16;;;16.99;100.00
47524;BME280;33253;42.144;25.884;2022-11-21T00:45:37;99413.06;;;16.95;100.00
47524;BME280;33253;42.144;25.884;2022-11-21T00:48:02;99415.66;;;16.89;100.00
47524;BME280;33253;42.144;25.884;2022-11-21T00:50:28;99412.19;;;16.95;100.00
47524;BME280;33253;42.144;25.884;2022-11-21T00:52:54;99406.97;;;16.95;100.00
47524;BME280;33253;42.144;25.884;2022-11-21T00:55:21;99370.50;;;16.89;100.00
47524;BME280;33253;42.144;25.884;2022-11-21T00:57:46;99347.03;;;16.92;100.00
47524;BME280;33253;42.144;25.884;2022-11-21T01:00:12;99356.56;;;16.97;100.00
47524;BME280;33253;42.144;25.884;2022-11-21T01:02:37;99360.06;;;16.90;100.00
47524;BME280;33253;42.144;25.884;2022-11-21T01:05:03;99349.63;;;16.89;100.00
47524;BME280;33253;42.144;25.884;2022-11-21T01:07:28;99362.66;;;16.87;100.00
47524;BME280;33253;42.144;25.884;2022-11-21T01:09:54;99367.00;;;16.88;100.00
47524;BME280;33253;42.144;25.884;2022-11-21T01:12:21;99344.50;;;16.76;100.00
47524;BME280;33253;42.144;25.884;2022-11-21T01:14:46;99360.97;;;16.86;100.00
47524;BME280;33253;42.144;25.884;2022-11-21T01:17:12;99379.94;;;17.10;100.00
47524;BME280;33253;42.144;25.884;2022-11-21T01:19:37;99389.47;;;17.12;100.00
47524;BME280;33253;42.144;25.884;2022-11-21T01:22:03;99380.78;;;17.15;100.00
47524;BME280;33253;42.144;25.884;2022-11-21T01:24:28;99383.34;;;17.18;99.29
47524;BME280;33253;42.144;25.884;2022-11-21T01:26:53;99363.34;;;17.20;99.23
47524;BME280;33253;42.144;25.884;2022-11-21T01:29:19;99359.84;;;17.21;99.55
47524;BME280;33253;42.144;25.884;2022-11-21T01:31:44;99352.94;;;17.17;100.00
47524;BME280;33253;42.144;25.884;2022-11-21T01:34:10;99356.41;;;17.18;100.00
47524;BME280;33253;42.144;25.884;2022-11-21T01:36:35;99364.19;;;17.22;99.63
47524;BME280;33253;42.144;25.884;2022-11-21T01:39:04;99316.53;;;17.02;99.92
47524;BME280;33253;42.144;25.884;2022-11-21T01:41:41;99302.63;;;17.00;99.14
47524;BME280;33253;42.144;25.884;2022-11-21T01:44:18;99356.34;;;17.24;99.29
47524;BME280;33253;42.144;25.884;2022-11-21T01:46:45;99343.34;;;17.22;99.10
47524;BME280;33253;42.144;25.884;2022-11-21T01:49:17;99350.19;;;17.29;98.58
47524;BME280;33253;42.144;25.884;2022-11-21T01:59:39;99332.72;;;17.39;97.86
47524;BME280;33253;42.144;25.884;2022-11-21T02:02:07;99321.41;;;17.43;97.69
47524;BME280;33253;42.144;25.884;2022-11-21T02:04:35;99317.03;;;17.44;97.45
47524;BME280;33253;42.144;25.884;2022-11-21T02:07:03;99305.72;;;17.45;nan
47524;BME280;33253;42.144;25.884;2022-11-21T02:09:32;99283.97;;;17.48;97.99
47524;BME280;33253;42.144;25.884;2022-11-21T02:12:01;99268.34;;;17.46;98.61
47524;BME280;33253;42.144;25.884;2022-11-21T02:14:30;99270.84;;;17.54;98.41
47524;BME280;33253;42.144;25.884;2022-11-21T02:16:57;99270.88;;;17.49;99.00
47524;BME280;33253;42.144;25.884;2022-11-21T02:19:54;99270.88;;;17.52;99.16
47524;BME280;33253;42.144;25.884;2022-11-21T02:27:52;99270.88;;;17.51;97.99
47524;BME280;33253;42.144;25.884;2022-11-21T02:30:19;99280.44;;;17.50;98.29
47524;BME280;33253;42.144;25.884;2022-11-21T02:32:45;99287.34;;;17.54;98.00
47524;BME280;33253;42.144;25.884;2022-11-21T02:35:15;99290.81;;;17.56;98.32
47524;BME280;33253;42.144;25.884;2022-11-21T02:37:43;99280.31;;;17.62;98.81
47524;BME280;33253;42.144;25.884;2022-11-21T02:40:19;99284.63;;;17.67;99.26
47524;BME280;33253;42.144;25.884;2022-11-21T02:45:30;99301.09;;;17.72;100.00
47524;BME280;33253;42.144;25.884;2022-11-21T02:47:57;99290.63;;;17.75;100.00
47524;BME280;33253;42.144;25.884;2022-11-21T02:50:26;99247.34;;;17.55;100.00
47524;BME280;33253;42.144;25.884;2022-11-21T02:52:52;99262.91;;;17.63;100.00
47524;BME280;33253;42.144;25.884;2022-11-21T02:55:17;99278.44;;;17.77;100.00
47524;BME280;33253;42.144;25.884;2022-11-21T02:57:43;99283.66;;;17.77;100.00
47524;BME280;33253;42.144;25.884;2022-11-21T03:00:09;99281.88;;;17.79;100.00
47524;BME280;33253;42.144;25.884;2022-11-21T03:02:36;99244.72;;;17.55;100.00
47524;BME280;33253;42.144;25.884;2022-11-21T03:05:03;99281.03;;;17.77;100.00
47524;BME280;33253;42.144;25.884;2022-11-21T03:07:29;99283.66;;;17.75;100.00
47524;BME280;33253;42.144;25.884;2022-11-21T03:09:55;99267.16;;;17.73;100.00
47524;BME280;33253;42.144;25.884;2022-11-21T03:12:20;99252.47;;;17.63;100.00
47524;BME280;33253;42.144;25.884;2022-11-21T03:14:46;99266.34;;;17.67;100.00
47524;BME280;33253;42.144;25.884;2022-11-21T03:17:11;99269.84;;;17.67;100.00
47524;BME280;33253;42.144;25.884;2022-11-21T03:19:36;99289.88;;;17.65;100.00
47524;BME280;33253;42.144;25.884;2022-11-21T03:22:02;99276.84;;;17.60;100.00
47524;BME280;33253;42.144;25.884;2022-11-21T03:24:27;99276.91;;;17.54;100.00
47524;BME280;33253;42.144;25.884;2022-11-21T03:26:53;99258.72;;;17.48;100.00
47524;BME280;33253;42.144;25.884;2022-11-21T03:29:18;99256.31;;;17.29;100.00
47524;BME280;33253;42.144;25.884;2022-11-21T03:31:43;99268.41;;;17.37;100.00
47524;BME280;33253;42.144;25.884;2022-11-21T03:34:09;99251.16;;;17.25;100.00
47524;BME280;33253;42.144;25.884;2022-11-21T03:36:35;99245.09;;;17.21;100.00
47524;BME280;33253;42.144;25.884;2022-11-21T03:39:00;99248.56;;;17.22;100.00
47524;BME280;33253;42.144;25.884;2022-11-21T03:41:26;99246.88;;;17.16;100.00
47524;BME280;33253;42.144;25.884;2022-11-21T03:43:58;99232.22;;;17.04;100.00
47524;BME280;33253;42.144;25.884;2022-11-21T03:46:25;99214.06;;;16.93;100.00
47524;BME280;33253;42.144;25.884;2022-11-21T03:48:51;99256.47;;;17.12;100.00
47524;BME280;33253;42.144;25.884;2022-11-21T03:51:17;99271.28;;;17.10;100.00
47524;BME280;33253;42.144;25.884;2022-11-21T03:53:42;99270.47;;;17.04;100.00
47524;BME280;33253;42.144;25.884;2022-11-21T03:56:08;99229.78;;;16.79;100.00
47524;BME280;33253;42.144;25.884;2022-11-21T03:58:33;99234.13;;;16.84;100.00
47524;BME280;33253;42.144;25.884;2022-11-21T04:00:58;99209.00;;;16.73;100.00
47524;BME280;33253;42.144;25.884;2022-11-21T04:03:24;99223.69;;;16.82;100.00
47524;BME280;33253;42.144;25.884;2022-11-21T04:05:49;99167.44;;;16.55;100.00
47524;BME280;33253;42.144;25.884;2022-11-21T04:08:14;99203.84;;;16.65;100.00
47524;BME280;33253;42.144;25.884;2022-11-21T04:10:46;99185.69;;;16.55;100.00
47524;BME280;33253;42.144;25.884;2022-11-21T04:13:12;99191.88;;;16.41;100.00
47524;BME280;33253;42.144;25.884;2022-11-21T04:15:37;99154.72;;;16.16;100.00
47524;BME280;33253;42.144;25.884;2022-11-21T04:18:03;99173.75;;;16.26;100.00
47524;BME280;33253;42.144;25.884;2022-11-21T04:20:28;99156.63;;;15.95;100.00
47524;BME280;33253;42.144;25.884;2022-11-21T04:22:54;99197.34;;;15.99;100.00
47524;BME280;33253;42.144;25.884;2022-11-21T04:25:19;99159.34;;;15.64;100.00
47524;BME280;33253;42.144;25.884;2022-11-21T04:27:44;99209.59;;;15.76;100.00
47524;BME280;33253;42.144;25.884;2022-11-21T04:30:11;99192.28;;;15.68;100.00
47524;BME280;33253;42.144;25.884;2022-11-21T04:32:37;99161.13;;;15.53;100.00
47524;BME280;33253;42.144;25.884;2022-11-21T04:35:02;99175.81;;;15.63;100.00
47524;BME280;33253;42.144;25.884;2022-11-21T04:37:28;99129.91;;;15.50;100.00
47524;BME280;33253;42.144;25.884;2022-11-21T04:39:53;99177.53;;;15.66;100.00
47524;BME280;33253;42.144;25.884;2022-11-21T04:42:19;99183.69;;;15.54;100.00
47524;BME280;33253;42.144;25.884;2022-11-21T04:44:44;99148.22;;;15.28;100.00
47524;BME280;33253;42.144;25.884;2022-11-21T04:47:09;99141.31;;;15.19;100.00
47524;BME280;33253;42.144;25.884;2022-11-21T04:49:35;99094.63;;;14.90;100.00
47524;BME280;33253;42.144;25.884;2022-11-21T04:52:00;99149.13;;;15.13;100.00
47524;BME280;33253;42.144;25.884;2022-11-21T04:54:26;99161.28;;;15.13;100.00
47524;BME280;33253;42.144;25.884;2022-11-21T04:56:51;99169.03;;;15.22;100.00
47524;BME280;33253;42.144;25.884;2022-11-21T04:59:16;99144.81;;;15.15;100.00
47524;BME280;33253;42.144;25.884;2022-11-21T05:01:42;99165.56;;;15.29;100.00
47524;BME280;33253;42.144;25.884;2022-11-21T05:04:07;99168.16;;;15.26;100.00
47524;BME280;33253;42.144;25.884;2022-11-21T05:06:32;99162.09;;;15.21;100.00
47524;BME280;33253;42.144;25.884;2022-11-21T05:08:58;99145.72;;;14.96;100.00
47524;BME280;33253;42.144;25.884;2022-11-21T05:11:24;99147.44;;;15.00;100.00
47524;BME280;33253;42.144;25.884;2022-11-21T05:14:08;99180.28;;;15.23;100.00
47524;BME280;33253;42.144;25.884;2022-11-21T05:16:33;99170.75;;;15.29;100.00
47524;BME280;33253;42.144;25.884;2022-11-21T05:18:59;99164.69;;;15.27;100.00
47524;BME280;33253;42.144;25.884;2022-11-21T05:21:24;99159.50;;;15.24;100.00
47524;BME280;33253;42.144;25.884;2022-11-21T05:23:50;99155.19;;;15.14;100.00
47524;BME280;33253;42.144;25.884;2022-11-21T05:26:15;99162.13;;;15.15;100.00
47524;BME280;33253;42.144;25.884;2022-11-21T05:28:41;99162.16;;;15.07;100.00
47524;BME280;33253;42.144;25.884;2022-11-21T05:31:06;99163.00;;;15.11;100.00
47524;BME280;33253;42.144;25.884;2022-11-21T05:33:31;99168.19;;;15.17;100.00
47524;BME280;33253;42.144;25.884;2022-11-21T05:35:57;99171.66;;;15.17;100.00
47524;BME280;33253;42.144;25.884;2022-11-21T05:38:22;99163.88;;;15.19;100.00
47524;BME280;33253;42.144;25.884;2022-11-21T05:40:48;99145.69;;;15.05;100.00
47524;BME280;33253;42.144;25.884;2022-11-21T05:43:13;99178.56;;;15.26;100.00
47524;BME280;33253;42.144;25.884;2022-11-21T05:45:57;99154.31;;;15.16;100.00
47524;BME280;33253;42.144;25.884;2022-11-21T05:48:22;99162.13;;;15.24;100.00
47524;BME280;33253;42.144;25.884;2022-11-21T05:50:48;99207.97;;;15.51;100.00
47524;BME280;33253;42.144;25.884;2022-11-21T05:53:14;99213.16;;;15.51;100.00
47524;BME280;33253;42.144;25.884;2022-11-21T05:55:40;99224.41;;;15.57;100.00
47524;BME280;33253;42.144;25.884;2022-11-21T05:58:05;99224.38;;;15.61;100.00
47524;BME280;33253;42.144;25.884;2022-11-21T06:00:33;99220.06;;;15.66;100.00
47524;BME280;33253;42.144;25.884;2022-11-21T06:02:58;99223.47;;;15.82;100.00
47524;BME280;33253;42.144;25.884;2022-11-21T06:05:43;99236.47;;;15.90;100.00
47524;BME280;33253;42.144;25.884;2022-11-21T06:08:08;99233.78;;;16.01;100.00
47524;BME280;33253;42.144;25.884;2022-11-21T06:10:34;99190.50;;;15.84;100.00
47524;BME280;33253;42.144;25.884;2022-11-21T06:13:00;99227.63;;;16.16;100.00
47524;BME280;33253;42.144;25.884;2022-11-21T06:15:26;99219.75;;;16.28;100.00
47524;BME280;33253;42.144;25.884;2022-11-21T06:17:51;99236.22;;;16.35;100.00
47524;BME280;33253;42.144;25.884;2022-11-21T06:20:17;99192.88;;;16.23;100.00
47524;BME280;33253;42.144;25.884;2022-11-21T06:22:42;99228.28;;;16.50;99.91
47524;BME280;33253;42.144;25.884;2022-11-21T06:25:08;99221.34;;;16.53;99.73
47524;BME280;33253;42.144;25.884;2022-11-21T06:27:33;99223.03;;;16.57;99.25
47524;BME280;33253;42.144;25.884;2022-11-21T06:29:59;99217.78;;;16.61;98.87
47524;BME280;33253;42.144;25.884;2022-11-21T06:32:24;99209.06;;;16.64;98.06
47524;BME280;33253;42.144;25.884;2022-11-21T06:34:49;99219.47;;;16.69;97.45
47524;BME280;33253;42.144;25.884;2022-11-21T06:37:15;99213.38;;;16.68;97.60
47524;BME280;33253;42.144;25.884;2022-11-21T06:39:41;99216.88;;;16.69;97.57
47524;BME280;33253;42.144;25.884;2022-11-21T06:42:06;99209.97;;;16.61;97.06
47524;BME280;33253;42.144;25.884;2022-11-21T06:44:32;99229.06;;;16.65;95.74
47524;BME280;33253;42.144;25.884;2022-11-21T06:46:57;99229.94;;;16.59;95.63
47524;BME280;33253;42.144;25.884;2022-11-21T06:49:23;99216.13;;;16.53;96.53
47524;BME280;33253;42.144;25.884;2022-11-21T06:51:48;99238.66;;;16.57;96.62
47524;BME280;33253;42.144;25.884;2022-11-21T06:54:13;99236.06;;;16.55;96.92
47524;BME280;33253;42.144;25.884;2022-11-21T06:56:39;99237.78;;;16.55;97.80
47524;BME280;33253;42.144;25.884;2022-11-21T06:59:04;99237.81;;;16.56;97.48
47524;BME280;33253;42.144;25.884;2022-11-21T07:01:30;99235.22;;;16.53;97.45
47524;BME280;33253;42.144;25.884;2022-11-21T07:03:55;99234.34;;;16.53;97.57
47524;BME280;33253;42.144;25.884;2022-11-21T07:06:21;99204.00;;;16.42;97.23
47524;BME280;33253;42.144;25.884;2022-11-21T07:08:47;99225.59;;;16.61;97.19
47524;BME280;33253;42.144;25.884;2022-11-21T07:11:13;99218.59;;;16.68;96.68
47524;BME280;33253;42.144;25.884;2022-11-21T07:13:39;99186.41;;;16.72;94.86
47524;BME280;33253;42.144;25.884;2022-11-21T07:16:06;99216.56;;;17.04;92.42
47524;BME280;33253;42.144;25.884;2022-11-21T07:18:33;99198.25;;;17.10;89.16
47524;BME280;33253;42.144;25.884;2022-11-21T07:20:59;99206.53;;;17.48;85.80
47524;BME280;33253;42.144;25.884;2022-11-21T07:23:26;99220.00;;;17.84;84.83
47524;BME280;33253;42.144;25.884;2022-11-21T07:26:11;99217.06;;;18.14;81.52
47524;BME280;33253;42.144;25.884;2022-11-21T07:28:37;99214.38;;;18.18;80.72
47524;BME280;33253;42.144;25.884;2022-11-21T07:31:02;99220.59;;;18.08;80.58
47524;BME280;33253;42.144;25.884;2022-11-21T07:33:28;99205.13;;;17.94;81.06
47524;BME280;33253;42.144;25.884;2022-11-21T07:35:57;99229.34;;;18.05;79.45
47524;BME280;33253;42.144;25.884;2022-11-21T07:38:23;99201.72;;;17.87;78.63
47524;BME280;33253;42.144;25.884;2022-11-21T07:40:48;99231.78;;;18.18;78.21
47524;BME280;33253;42.144;25.884;2022-11-21T07:43:14;99195.91;;;18.31;77.06
47524;BME280;33253;42.144;25.884;2022-11-21T07:45:39;99190.78;;;18.24;75.45
47524;BME280;33253;42.144;25.884;2022-11-21T07:48:06;99208.56;;;18.57;75.24
47524;BME280;33253;42.144;25.884;2022-11-21T07:50:31;99188.69;;;18.48;74.78
47524;BME280;33253;42.144;25.884;2022-11-21T07:55:24;99228.16;;;18.84;74.40
47524;BME280;33253;42.144;25.884;2022-11-21T07:57:57;99233.34;;;18.90;73.90
47524;BME280;33253;42.144;25.884;2022-11-21T08:00:23;99236.63;;;19.02;73.90
47524;BME280;33253;42.144;25.884;2022-11-21T08:02:48;99248.69;;;19.11;72.44
47524;BME280;33253;42.144;25.884;2022-11-21T08:05:13;99244.09;;;19.22;72.54
47524;BME280;33253;42.144;25.884;2022-11-21T08:07:39;99249.25;;;19.27;71.17
47524;BME280;33253;42.144;25.884;2022-11-21T08:10:04;99249.63;;;19.05;72.01
47524;BME280;33253;42.144;25.884;2022-11-21T08:12:31;99248.50;;;19.20;70.20
47524;BME280;33253;42.144;25.884;2022-11-21T08:14:57;99246.56;;;19.30;71.13
47524;BME280;33253;42.144;25.884;2022-11-21T08:17:25;99261.28;;;19.37;70.27
47524;BME280;33253;42.144;25.884;2022-11-21T08:19:50;99262.88;;;19.46;69.65
47524;BME280;33253;42.144;25.884;2022-11-21T08:22:16;99233.69;;;19.19;69.69
47524;BME280;33253;42.144;25.884;2022-11-21T08:24:41;99282.19;;;19.38;69.73
47524;BME280;33253;42.144;25.884;2022-11-21T08:27:07;99282.06;;;19.45;69.72
47524;BME280;33253;42.144;25.884;2022-11-21T08:29:32;99285.38;;;19.54;68.85
47524;BME280;33253;42.144;25.884;2022-11-21T08:31:57;99284.75;;;19.42;69.29
47524;BME280;33253;42.144;25.884;2022-11-21T08:34:23;99286.19;;;19.58;69.32
47524;BME280;33253;42.144;25.884;2022-11-21T08:36:48;99268.91;;;19.49;69.18
47524;BME280;33253;42.144;25.884;2022-11-21T08:39:13;99248.34;;;19.28;69.66
47524;BME280;33253;42.144;25.884;2022-11-21T08:41:39;99283.38;;;19.69;68.74
47524;BME280;33253;42.144;25.884;2022-11-21T08:44:23;99286.69;;;19.77;69.89
47524;BME280;33253;42.144;25.884;2022-11-21T08:46:48;99262.84;;;19.91;68.75
47524;BME280;33253;42.144;25.884;2022-11-21T08:49:14;99276.47;;;20.10;68.63
47524;BME280;33253;42.144;25.884;2022-11-21T08:51:39;99266.16;;;20.01;68.22
47524;BME280;33253;42.144;25.884;2022-11-21T08:54:05;99262.44;;;20.13;67.71
47524;BME280;33253;42.144;25.884;2022-11-21T08:56:30;99266.47;;;20.28;68.86
47524;BME280;33253;42.144;25.884;2022-11-21T08:58:56;99266.44;;;20.29;66.35
47524;BME280;33253;42.144;25.884;2022-11-21T09:01:22;99274.47;;;20.22;67.01
47524;BME280;33253;42.144;25.884;2022-11-21T09:03:47;99265.09;;;20.10;67.42
47524;BME280;33253;42.144;25.884;2022-11-21T09:06:13;99261.72;;;20.04;67.40
47524;BME280;33253;42.144;25.884;2022-11-21T09:08:39;99236.72;;;19.90;66.98
47524;BME280;33253;42.144;25.884;2022-11-21T09:11:05;99267.75;;;20.08;68.27
47524;BME280;33253;42.144;25.884;2022-11-21T09:13:32;99250.00;;;20.23;66.66
47524;BME280;33253;42.144;25.884;2022-11-21T09:15:58;99245.41;;;20.31;66.05
47524;BME280;33253;42.144;25.884;2022-11-21T09:18:42;99239.50;;;20.21;65.88
47524;BME280;33253;42.144;25.884;2022-11-21T09:21:08;99231.84;;;20.13;64.85
47524;BME280;33253;42.144;25.884;2022-11-21T09:23:33;99228.81;;;19.93;64.36
47524;BME280;33253;42.144;25.884;2022-11-21T09:25:59;99234.22;;;19.83;65.00
47524;BME280;33253;42.144;25.884;2022-11-21T09:28:25;99230.63;;;19.89;65.26
47524;BME280;33253;42.144;25.884;2022-11-21T09:30:50;99231.59;;;19.83;64.55
47524;BME280;33253;42.144;25.884;2022-11-21T09:33:16;99224.63;;;19.81;65.60
47524;BME280;33253;42.144;25.884;2022-11-21T09:35:41;99223.56;;;19.91;64.60
47524;BME280;33253;42.144;25.884;2022-11-21T09:38:07;99213.75;;;20.01;64.38
47524;BME280;33253;42.144;25.884;2022-11-21T09:40:34;99199.72;;;20.05;64.41
47524;BME280;33253;42.144;25.884;2022-11-21T09:45:33;99224.91;;;20.11;64.86
47524;BME280;33253;42.144;25.884;2022-11-21T09:50:59;99212.56;;;20.16;68.32
47524;BME280;33253;42.144;25.884;2022-11-21T09:53:29;99230.81;;;20.20;68.55
47524;BME280;33253;42.144;25.884;2022-11-21T09:56:10;99213.22;;;20.26;69.05
47524;BME280;33253;42.144;25.884;2022-11-21T10:01:31;99184.56;;;20.18;68.01
47524;BME280;33253;42.144;25.884;2022-11-21T10:04:00;99213.63;;;20.45;67.51
47524;BME280;33253;42.144;25.884;2022-11-21T10:06:28;99189.13;;;20.47;67.13
47524;BME280;33253;42.144;25.884;2022-11-21T10:29:17;99201.25;;;20.51;65.52
47524;BME280;33253;42.144;25.884;2022-11-21T10:31:45;99197.16;;;20.41;65.33
47524;BME280;33253;42.144;25.884;2022-11-21T10:34:24;99168.84;;;20.18;65.40
47524;BME280;33253;42.144;25.884;2022-11-21T10:36:54;99205.53;;;20.56;65.44
47524;BME280;33253;42.144;25.884;2022-11-21T10:39:33;99160.47;;;20.40;64.05
47524;BME280;33253;42.144;25.884;2022-11-21T10:42:04;99162.97;;;20.44;63.83
47524;BME280;33253;42.144;25.884;2022-11-21T10:44:38;99195.75;;;20.62;63.82
47524;BME280;33253;42.144;25.884;2022-11-21T10:47:24;99191.56;;;20.53;64.57
47524;BME280;33253;42.144;25.884;2022-11-21T10:53:15;99190.09;;;20.43;64.22
47524;BME280;33253;42.144;25.884;2022-11-21T10:56:03;99183.41;;;20.30;65.91
47524;BME280;33253;42.144;25.884;2022-11-21T10:58:43;99184.19;;;20.35;66.82
47524;BME280;33253;42.144;25.884;2022-11-21T11:01:28;99175.53;;;20.30;65.39
47524;BME280;33253;42.144;25.884;2022-11-21T11:06:40;99158.38;;;20.18;64.34
47524;BME280;33253;42.144;25.884;2022-11-21T11:09:06;99176.63;;;20.21;64.49
47524;BME280;33253;42.144;25.884;2022-11-21T11:11:32;99183.78;;;20.14;64.40
47524;BME280;33253;42.144;25.884;2022-11-21T11:14:03;99176.06;;;20.08;64.60
47524;BME280;33253;42.144;25.884;2022-11-21T11:16:31;99179.47;;;20.12;64.68
47524;BME280;33253;42.144;25.884;2022-11-21T11:21:30;99182.09;;;20.12;64.53
47524;BME280;33253;42.144;25.884;2022-11-21T11:26:34;99188.44;;;20.00;64.74
47524;BME280;33253;42.144;25.884;2022-11-21T11:29:14;99188.50;;;19.98;65.51
47524;BME280;33253;42.144;25.884;2022-11-21T11:31:48;99178.06;;;19.97;65.72
47524;BME280;33253;42.144;25.884;2022-11-21T11:34:15;99178.06;;;19.97;65.83
47524;BME280;33253;42.144;25.884;2022-11-21T11:37:17;99176.28;;;19.97;64.99
47524;BME280;33253;42.144;25.884;2022-11-21T11:39:59;99175.63;;;19.87;65.32
47524;BME280;33253;42.144;25.884;2022-11-21T11:48:22;99166.31;;;19.74;64.87
47524;BME280;33253;42.144;25.884;2022-11-21T11:50:50;99136.34;;;19.47;64.63
47524;BME280;33253;42.144;25.884;2022-11-21T11:53:32;99159.50;;;19.65;65.50
47524;BME280;33253;42.144;25.884;2022-11-21T11:56:04;99145.09;;;19.46;64.56
47524;BME280;33253;42.144;25.884;2022-11-21T12:04:20;99173.53;;;19.63;65.49
47524;BME280;33253;42.144;25.884;2022-11-21T12:07:03;99175.22;;;19.64;65.14
47524;BME280;33253;42.144;25.884;2022-11-21T12:09:47;99183.09;;;19.64;65.09
47524;BME280;33253;42.144;25.884;2022-11-21T12:12:25;99132.44;;;19.24;65.21
47524;BME280;33253;42.144;25.884;2022-11-21T12:23:35;99176.53;;;19.44;65.41
47524;BME280;33253;42.144;25.884;2022-11-21T12:36:51;99187.50;;;19.16;67.65
47524;BME280;33253;42.144;25.884;2022-11-21T12:39:36;99185.66;;;19.21;68.36
47524;BME280;33253;42.144;25.884;2022-11-21T12:42:26;99183.19;;;19.14;68.05
47524;BME280;33253;42.144;25.884;2022-11-21T12:45:29;99185.81;;;19.15;67.82
47524;BME280;33253;42.144;25.884;2022-11-21T13:00:03;99201.88;;;18.39;75.12
47524;BME280;33253;42.144;25.884;2022-11-21T13:05:26;99210.84;;;18.22;76.20
47524;BME280;33253;42.144;25.884;2022-11-21T13:08:03;99204.91;;;18.11;74.68
47524;BME280;33253;42.144;25.884;2022-11-21T13:10:30;99215.22;;;18.20;74.55
47524;BME280;33253;42.144;25.884;2022-11-21T13:15:38;99224.03;;;18.11;74.67
47524;BME280;33253;42.144;25.884;2022-11-21T13:18:18;99230.22;;;18.04;74.76
47524;BME280;33253;42.144;25.884;2022-11-21T13:20:49;99230.19;;;18.07;75.04
47524;BME280;33253;42.144;25.884;2022-11-21T13:23:37;99228.63;;;17.94;76.99
47524;BME280;33253;42.144;25.884;2022-11-21T13:29:07;99222.78;;;17.73;81.90
47524;BME280;33253;42.144;25.884;2022-11-21T13:31:35;99246.38;;;17.64;82.53
47524;BME280;33253;42.144;25.884;2022-11-21T13:34:02;99236.13;;;17.49;82.82
47524;BME280;33253;42.144;25.884;2022-11-21T13:52:45;99231.06;;;17.33;83.70
47524;BME280;33253;42.144;25.884;2022-11-21T13:55:46;99233.59;;;17.41;82.75
47524;BME280;33253;42.144;25.884;2022-11-21T13:58:24;99238.75;;;17.45;82.20
47524;BME280;33253;42.144;25.884;2022-11-21T14:03:30;99237.91;;;17.45;78.68
47524;BME280;33253;42.144;25.884;2022-11-21T14:08:42;99253.38;;;17.62;75.50
47524;BME280;33253;42.144;25.884;2022-11-21T14:11:25;99246.41;;;17.61;74.55
47524;BME280;33253;42.144;25.884;2022-11-21T14:13:54;99254.16;;;17.69;72.81
47524;BME280;33253;42.144;25.884;2022-11-21T14:16:28;99257.56;;;17.74;72.63
47524;BME280;33253;42.144;25.884;2022-11-21T14:18:56;99255.00;;;17.72;72.44
47524;BME280;33253;42.144;25.884;2022-11-21T14:21:29;99272.28;;;17.81;70.70
47524;BME280;33253;42.144;25.884;2022-11-21T14:24:04;99236.00;;;17.58;70.45
47524;BME280;33253;42.144;25.884;2022-11-21T14:26:40;99273.16;;;17.80;68.93
47524;BME280;33253;42.144;25.884;2022-11-21T14:29:24;99246.38;;;17.64;68.60
47524;BME280;33253;42.144;25.884;2022-11-21T14:31:51;99275.91;;;17.71;68.48
47524;BME280;33253;42.144;25.884;2022-11-21T14:34:27;99285.56;;;17.61;69.49
47524;BME280;33253;42.144;25.884;2022-11-21T14:36:54;99296.09;;;17.52;70.11
47524;BME280;33253;42.144;25.884;2022-11-21T14:39:26;99297.25;;;17.23;73.65
47524;BME280;33253;42.144;25.884;2022-11-21T14:41:58;99261.00;;;16.86;75.67
47524;BME280;33253;42.144;25.884;2022-11-21T14:44:25;99296.53;;;17.05;77.98
47524;BME280;33253;42.144;25.884;2022-11-21T14:47:04;99214.44;;;16.42;79.57
47524;BME280;33253;42.144;25.884;2022-11-21T14:49:31;99290.63;;;16.80;81.60
47524;BME280;33253;42.144;25.884;2022-11-21T14:52:05;99260.50;;;16.40;84.06
47524;BME280;33253;42.144;25.884;2022-11-21T14:54:45;99289.88;;;16.59;84.09
47524;BME280;33253;42.144;25.884;2022-11-21T14:57:19;99260.41;;;16.49;84.09
47524;BME280;33253;42.144;25.884;2022-11-21T14:59:46;99295.91;;;16.64;84.95
47524;BME280;33253;42.144;25.884;2022-11-21T15:02:18;99299.44;;;16.59;85.52
47524;BME280;33253;42.144;25.884;2022-11-21T15:04:46;99294.25;;;16.56;85.45